Time;durP1;ratioP1;P1;durP2;ratioP2;P2;SDS_P1;SDS_P2;PMS_P1;PMS_P2;Temp;Humidity;BMP_temperature;BMP_pressure;BME280_temperature;BME280_humidity;BME280_pressure;Samples;Min_cycle;Max_cycle;Signal;HPM_P1;HPM_P2
2022/06/03 00:01:08;;;;;;;3.85;2.70;;;;;;;15.77;58.64;101168.28;5032792;28;20469;-66
2022/06/03 00:03:52;;;;;;;4.15;3.10;;;;;;;15.86;58.74;101165.31;5032142;28;20145;-66
2022/06/03 00:06:41;;;;;;;4.95;2.80;;;;;;;15.71;59.57;101171.94;5027722;28;20120;-67
2022/06/03 00:09:27;;;;;;;4.25;3.08;;;;;;;15.66;59.55;101165.06;5032695;28;20454;-68
2022/06/03 00:11:59;;;;;;;5.43;3.03;;;;;;;15.74;59.16;101173.66;5032164;28;20026;-66
2022/06/03 00:14:27;;;;;;;4.80;3.08;;;;;;;15.73;59.06;101177.22;5032684;28;20037;-67
2022/06/03 00:17:11;;;;;;;7.78;3.40;;;;;;;15.73;59.03;101174.56;5032477;28;20036;-66
2022/06/03 00:20:08;;;;;;;4.68;3.00;;;;;;;15.61;59.86;101170.47;5032290;28;20033;-66
2022/06/03 00:23:11;;;;;;;5.20;3.03;;;;;;;15.60;59.92;101171.41;5032147;28;20029;-65
2022/06/03 00:25:51;;;;;;;5.13;3.10;;;;;;;15.58;59.57;101167.06;5036302;28;20451;-66
2022/06/03 00:28:44;;;;;;;5.47;3.35;;;;;;;15.60;59.62;101168.75;5031398;28;20040;-66
2022/06/03 00:31:24;;;;;;;5.38;3.55;;;;;;;15.58;59.72;101161.75;5030861;28;20476;-66
2022/06/03 00:34:06;;;;;;;3.97;3.33;;;;;;;15.61;59.45;101166.97;5036168;28;20041;-66
2022/06/03 00:36:38;;;;;;;4.45;3.45;;;;;;;15.57;59.57;101170.63;5036301;28;20439;-65
2022/06/03 00:39:28;;;;;;;4.93;3.58;;;;;;;15.59;59.90;101167.00;5035818;28;20445;-67
2022/06/03 00:42:31;;;;;;;4.90;3.22;;;;;;;15.49;60.32;101178.78;5035029;28;20041;-66
2022/06/03 00:45:15;;;;;;;5.05;3.00;;;;;;;15.43;60.29;101182.47;5036117;28;20044;-66
2022/06/03 00:48:19;;;;;;;4.65;3.50;;;;;;;15.41;60.33;101186.97;5035976;28;20030;-67
2022/06/03 00:51:23;;;;;;;5.70;3.30;;;;;;;15.32;60.95;101187.22;5034919;28;20037;-66
2022/06/03 00:54:07;;;;;;;5.97;3.17;;;;;;;15.27;60.82;101184.69;5035421;28;20061;-67
2022/06/03 00:56:38;;;;;;;5.00;3.30;;;;;;;15.28;60.33;101194.38;5036155;28;20037;-65
2022/06/03 00:59:26;;;;;;;5.07;3.13;;;;;;;15.25;60.45;101180.38;5035583;28;20052;-67
2022/06/03 01:02:10;;;;;;;4.22;3.00;;;;;;;15.17;60.52;101188.53;5035556;28;20052;-66
2022/06/03 01:04:42;;;;;;;4.43;2.72;;;;;;;15.13;60.88;101186.00;5035659;28;20049;-67
2022/06/03 01:07:20;;;;;;;4.95;3.10;;;;;;;15.15;60.55;101184.16;5035959;28;20076;-67
2022/06/03 01:10:07;;;;;;;4.25;3.15;;;;;;;15.07;60.95;101187.03;5035535;28;20053;-66
2022/06/03 01:12:44;;;;;;;5.97;3.72;;;;;;;15.04;61.03;101195.06;5035544;28;20069;-66
2022/06/03 01:15:16;;;;;;;6.47;4.05;;;;;;;15.06;60.85;101192.38;5029764;28;20056;-66
2022/06/03 01:18:25;;;;;;;4.35;3.47;;;;;;;15.06;61.00;101184.44;5035240;28;20522;-65
2022/06/03 01:20:56;;;;;;;7.03;3.72;;;;;;;14.99;60.71;101187.22;5026745;28;20120;-67
2022/06/03 01:23:47;;;;;;;5.97;4.38;;;;;;;14.96;61.16;101183.78;5035693;28;20155;-67
2022/06/03 01:26:45;;;;;;;6.82;4.30;;;;;;;14.91;61.18;101181.28;5029980;28;20488;-67
2022/06/03 01:29:33;;;;;;;5.20;4.18;;;;;;;14.91;61.05;101191.00;5029384;28;20037;-66
2022/06/03 01:32:17;;;;;;;8.32;4.43;;;;;;;14.90;61.32;101189.25;5035616;28;20037;-66
2022/06/03 01:35:17;;;;;;;7.05;4.03;;;;;;;14.92;61.24;101183.03;5033963;28;20037;-66
2022/06/03 01:38:01;;;;;;;8.48;5.60;;;;;;;14.91;61.19;101183.91;5033714;28;20041;-67
2022/06/03 01:40:54;;;;;;;6.22;4.43;;;;;;;14.89;61.24;101188.41;5031310;28;20135;-66
2022/06/03 01:43:56;;;;;;;9.05;5.22;;;;;;;14.86;61.17;101188.47;5035300;28;20061;-67
2022/06/03 01:47:09;;;;;;;6.97;5.27;;;;;;;14.86;61.46;101188.47;5030812;28;20034;-67
2022/06/03 01:49:56;;;;;;;5.70;4.05;;;;;;;14.85;61.39;101197.34;4996684;28;20041;-65
2022/06/03 01:52:45;;;;;;;7.45;5.05;;;;;;;14.85;60.99;101194.69;5030628;28;20029;-67
2022/06/03 01:55:32;;;;;;;7.93;5.25;;;;;;;14.88;61.11;101186.66;5033869;28;20025;-66
2022/06/03 01:58:17;;;;;;;6.53;4.47;;;;;;;14.92;60.66;101179.50;5035118;28;20048;-66
2022/06/03 02:00:51;;;;;;;6.20;5.15;;;;;;;14.96;60.37;101184.69;5032755;28;20048;-66
2022/06/03 02:04:01;;;;;;;7.65;4.60;;;;;;;14.95;60.74;101185.56;5028048;28;20045;-67
2022/06/03 02:06:50;;;;;;;6.38;4.60;;;;;;;14.86;60.87;101180.53;5030415;28;20124;-67
2022/06/03 02:09:47;;;;;;;5.15;4.07;;;;;;;14.84;61.10;101187.66;5026049;28;20120;-67
2022/06/03 02:12:35;;;;;;;7.03;4.40;;;;;;;14.83;61.05;101188.56;5035449;28;20568;-67
2022/06/03 02:15:12;;;;;;;6.43;5.40;;;;;;;14.87;60.89;101192.84;5033943;28;20140;-67
2022/06/03 02:18:15;;;;;;;6.57;4.90;;;;;;;14.90;60.86;101184.84;5034967;28;20511;-67
2022/06/03 02:21:06;;;;;;;7.88;5.15;;;;;;;14.85;60.96;101186.75;5034234;28;20448;-67
2022/06/03 02:24:12;;;;;;;8.27;4.60;;;;;;;14.85;60.86;101196.47;5034977;28;20053;-67
2022/06/03 02:26:50;;;;;;;5.75;4.43;;;;;;;14.89;60.92;101193.69;5035352;28;20061;-67
2022/06/03 02:32:49;;;;;;;8.48;5.03;;;;;;;14.94;60.97;101191.78;5035418;28;20052;-66
2022/06/03 02:35:33;;;;;;;;;;;;;;;14.98;61.30;101193.44;5018696;28;20112;-67
2022/06/03 02:38:07;;;;;;;6.40;4.55;;;;;;;14.93;60.64;101205.94;5034636;28;20296;-67
2022/06/03 02:40:52;;;;;;;8.27;4.93;;;;;;;15.01;60.42;101197.78;5035078;28;20116;-67
2022/06/03 02:43:39;;;;;;;6.25;4.93;;;;;;;15.00;60.38;101204.88;5034920;28;20037;-66
2022/06/03 02:46:24;;;;;;;8.65;5.45;;;;;;;15.03;60.69;101196.81;5034103;28;20092;-67
2022/06/03 02:49:17;;;;;;;7.05;4.82;;;;;;;15.08;60.65;101211.72;5041071;28;20030;-65
2022/06/03 02:52:01;;;;;;;6.00;4.40;;;;;;;15.10;60.50;101215.19;5036122;28;20072;-64
2022/06/03 02:54:47;;;;;;;7.97;4.63;;;;;;;15.09;60.62;101211.69;5029518;28;20538;-65
2022/06/03 02:57:29;;;;;;;7.03;4.82;;;;;;;15.08;60.49;101217.00;5025253;28;20048;-67
2022/06/03 03:00:34;;;;;;;5.72;3.92;;;;;;;15.04;60.97;101210.94;5033370;28;20036;-65
2022/06/03 03:03:11;;;;;;;5.40;4.07;;;;;;;15.11;60.30;101215.13;5018895;28;20073;-65
2022/06/03 03:06:00;;;;;;;5.00;4.10;;;;;;;15.14;60.37;101211.56;5033425;28;20124;-65
2022/06/03 03:08:44;;;;;;;6.60;4.50;;;;;;;15.15;60.36;101214.16;5032273;28;20029;-66
2022/06/03 03:11:22;;;;;;;7.07;4.95;;;;;;;15.20;60.28;101220.22;5033197;28;20040;-67
2022/06/03 03:14:05;;;;;;;6.18;4.72;;;;;;;15.22;60.24;101220.16;5031803;28;20033;-65
2022/06/03 03:16:57;;;;;;;6.15;4.07;;;;;;;15.29;60.20;101224.38;5032928;28;20037;-65
2022/06/03 03:19:53;;;;;;;6.82;4.00;;;;;;;15.40;60.05;101211.72;5030156;28;20018;-67
2022/06/03 03:22:44;;;;;;;4.70;3.88;;;;;;;15.49;59.74;101213.22;5014348;28;20350;-66
2022/06/03 03:25:09;;;;;;;6.43;4.50;;;;;;;15.51;59.54;101220.19;5014298;28;20503;-66
2022/06/03 03:27:53;;;;;;;5.35;4.05;;;;;;;15.52;59.79;101216.66;5014212;28;20057;-66
2022/06/03 03:30:44;;;;;;;4.97;3.80;;;;;;;15.51;59.75;101220.19;5014705;28;20032;-65
2022/06/03 03:33:37;;;;;;;4.90;3.70;;;;;;;15.51;59.81;101212.25;5029898;28;20385;-65
2022/06/03 03:36:21;;;;;;;5.93;3.15;;;;;;;15.81;58.93;101214.09;5031628;28;20062;-65
2022/06/03 03:39:08;;;;;;;6.40;3.67;;;;;;;15.76;59.09;101214.22;5031059;28;20061;-65
2022/06/03 03:42:15;;;;;;;3.78;3.00;;;;;;;15.79;59.12;101214.13;5033124;28;20045;-65
2022/06/03 03:45:25;;;;;;;6.82;3.40;;;;;;;15.80;59.24;101221.19;5024572;28;20049;-64
2022/06/03 03:48:28;;;;;;;5.18;3.38;;;;;;;15.81;59.27;101222.91;5030309;28;20034;-64
2022/06/03 03:51:02;;;;;;;4.55;3.00;;;;;;;15.83;58.74;101229.00;5032506;28;20036;-65
2022/06/03 03:53:55;;;;;;;5.15;3.65;;;;;;;15.85;58.86;101229.84;5032368;28;20037;-65
2022/06/03 03:56:35;;;;;;;6.75;3.50;;;;;;;15.80;58.95;101228.22;5027254;28;20040;-66
2022/06/03 03:59:22;;;;;;;4.50;3.65;;;;;;;15.86;58.86;101236.00;5046941;28;20499;-65
2022/06/03 04:02:06;;;;;;;3.63;3.10;;;;;;;15.92;59.09;101228.75;5029461;28;20124;-65
2022/06/03 04:04:56;;;;;;;5.22;3.60;;;;;;;15.93;58.97;101234.91;5032862;28;20083;-64
2022/06/03 04:07:52;;;;;;;6.78;4.63;;;;;;;16.07;58.84;101229.19;5027363;28;20437;-66
2022/06/03 04:11:08;;;;;;;3.85;3.15;;;;;;;16.18;58.70;101229.72;5027531;28;20026;-64
2022/06/03 04:13:49;;;;;;;5.50;3.78;;;;;;;16.26;58.31;101222.38;5011659;28;20073;-64
2022/06/03 04:16:51;;;;;;;6.57;3.67;;;;;;;16.33;58.62;101231.88;5030466;28;20092;-64
2022/06/03 04:20:06;;;;;;;4.88;4.00;;;;;;;16.51;58.13;101236.59;5032417;28;20037;-64
2022/06/03 04:22:52;;;;;;;5.43;3.70;;;;;;;16.47;58.62;101236.75;5017264;28;20413;-65
2022/06/03 04:25:30;;;;;;;5.13;3.88;;;;;;;16.64;58.06;101236.22;5033439;28;20033;-66
2022/06/03 04:28:10;;;;;;;6.40;4.00;;;;;;;16.88;57.09;101239.84;5030940;28;20060;-65
2022/06/03 04:30:51;;;;;;;4.35;3.47;;;;;;;17.04;57.00;101240.19;5030346;28;20095;-65
2022/06/03 04:33:49;;;;;;;4.97;3.90;;;;;;;17.22;56.84;101243.03;5036560;28;20038;-65
2022/06/03 04:37:00;;;;;;;5.60;4.57;;;;;;;17.49;56.46;101243.84;5028657;28;20028;-64
2022/06/03 04:39:44;;;;;;;5.70;4.47;;;;;;;17.80;55.42;101248.06;5020476;28;20401;-65
2022/06/03 04:42:47;;;;;;;7.95;4.45;;;;;;;18.04;55.05;101248.06;5032122;28;20117;-64
2022/06/03 04:46:06;;;;;;;5.18;3.70;;;;;;;18.29;54.73;101243.47;5032609;28;20465;-64
2022/06/03 04:48:50;;;;;;;5.07;3.78;;;;;;;18.51;53.85;101245.25;5030589;28;20046;-65
2022/06/03 04:51:34;;;;;;;5.47;3.88;;;;;;;18.55;53.75;101246.88;5029602;28;20041;-65
2022/06/03 04:54:37;;;;;;;5.10;3.80;;;;;;;18.56;53.81;101243.31;5031839;28;20037;-67
2022/06/03 04:57:27;;;;;;;6.28;3.65;;;;;;;18.43;54.26;101248.22;5030453;28;20021;-67
2022/06/03 05:00:05;;;;;;;5.60;3.80;;;;;;;18.38;54.25;101243.09;5030620;28;20037;-68
2022/06/03 05:02:36;;;;;;;5.38;3.63;;;;;;;18.31;54.28;101252.28;5031771;28;20045;-66
2022/06/03 05:05:13;;;;;;;6.38;4.13;;;;;;;18.32;54.32;101254.00;5032229;28;20063;-67
2022/06/03 05:07:58;;;;;;;4.95;3.47;;;;;;;18.33;54.60;101255.72;5032892;28;20033;-66
2022/06/03 05:10:38;;;;;;;4.93;3.85;;;;;;;18.34;54.34;101252.13;5039158;28;20083;-67
2022/06/03 05:13:25;;;;;;;5.60;3.50;;;;;;;18.46;54.64;101254.31;5023428;28;20030;-67
2022/06/03 05:15:57;;;;;;;4.28;3.47;;;;;;;18.52;54.34;101257.66;5036217;28;20036;-67
2022/06/03 05:18:44;;;;;;;6.40;3.70;;;;;;;18.64;54.14;101259.81;5034787;28;20059;-66
2022/06/03 05:21:40;;;;;;;5.10;3.40;;;;;;;18.67;54.21;101263.22;5036582;28;20025;-65
2022/06/03 05:24:28;;;;;;;4.53;3.03;;;;;;;18.78;53.86;101262.78;5035649;28;20103;-66
2022/06/03 05:27:24;;;;;;;6.20;3.17;;;;;;;18.90;53.57;101261.41;5029123;28;20117;-67
2022/06/03 05:29:59;;;;;;;4.85;3.28;;;;;;;19.03;53.24;101264.41;5035240;28;20037;-65
2022/06/03 05:33:02;;;;;;;5.07;3.65;;;;;;;19.15;53.06;101261.22;5035253;28;20393;-64
2022/06/03 05:35:40;;;;;;;5.45;3.00;;;;;;;19.18;52.43;101264.63;5035907;28;20095;-67
2022/06/03 05:38:52;;;;;;;4.07;2.88;;;;;;;19.23;52.39;101256.44;5032811;28;20077;-67
2022/06/03 05:42:24;;;;;;;4.75;3.03;;;;;;;19.29;52.01;101260.63;5023530;28;20037;-67
2022/06/03 05:45:17;;;;;;;2.85;2.30;;;;;;;19.21;52.31;101255.63;4968412;28;20043;-67
2022/06/03 05:47:48;;;;;;;5.88;2.40;;;;;;;19.40;52.08;101264.56;4958572;28;20437;-67
2022/06/03 05:50:32;;;;;;;3.70;2.67;;;;;;;19.59;51.78;101253.06;5023379;28;20061;-67
2022/06/03 05:53:25;;;;;;;4.72;2.85;;;;;;;19.61;51.80;101259.19;5035099;28;20033;-66
2022/06/03 05:56:02;;;;;;;4.18;2.85;;;;;;;19.65;51.30;101260.81;5035839;28;20033;-67
2022/06/03 05:58:46;;;;;;;4.25;2.88;;;;;;;19.62;51.19;101258.28;5035162;28;20076;-67
2022/06/03 06:01:36;;;;;;;4.45;2.83;;;;;;;19.57;51.19;101260.28;5035173;28;20045;-66
2022/06/03 06:04:23;;;;;;;5.50;3.50;;;;;;;19.59;51.09;101261.06;5034563;28;20484;-66
2022/06/03 06:07:05;;;;;;;8.63;4.05;;;;;;;19.63;50.98;101260.91;5035159;28;20052;-67
2022/06/03 06:09:41;;;;;;;5.13;3.40;;;;;;;19.73;50.88;101260.47;5035636;28;20033;-66
2022/06/03 06:12:13;;;;;;;5.50;3.92;;;;;;;19.66;50.36;101259.88;5034705;28;20033;-65
2022/06/03 06:14:47;;;;;;;3.92;3.17;;;;;;;19.80;50.67;101254.78;5035845;28;20040;-66
2022/06/03 06:17:47;;;;;;;5.75;3.30;;;;;;;20.08;50.31;101258.84;5042426;28;20091;-67
2022/06/03 06:20:47;;;;;;;4.00;3.28;;;;;;;20.09;49.79;101258.75;5034165;28;20041;-67
2022/06/03 06:23:21;;;;;;;5.53;3.28;;;;;;;20.01;49.90;101265.38;5022682;28;20116;-65
2022/06/03 06:26:15;;;;;;;4.40;3.03;;;;;;;20.20;49.28;101271.59;5034927;28;20064;-66
2022/06/03 06:29:16;;;;;;;6.22;3.28;;;;;;;20.06;49.83;101280.22;5050608;28;20440;-66
2022/06/03 06:31:47;;;;;;;4.35;2.92;;;;;;;20.30;49.15;101269.34;4978853;28;21844;-66
2022/06/03 06:34:24;;;;;;;8.02;3.63;;;;;;;20.05;49.58;101273.16;5032517;28;20068;-67
2022/06/03 06:37:06;;;;;;;7.90;3.05;;;;;;;20.24;48.93;101273.16;5034038;28;20090;-67
2022/06/03 06:39:43;;;;;;;4.57;3.38;;;;;;;20.31;49.15;101282.63;5029698;28;20037;-66
2022/06/03 06:42:08;;;;;;;6.93;3.22;;;;;;;20.54;48.89;101278.00;5034169;28;20476;-66
2022/06/03 06:44:55;;;;;;;8.40;3.17;;;;;;;20.49;49.00;101282.69;5033315;28;20078;-67
2022/06/03 06:47:53;;;;;;;4.65;3.00;;;;;;;20.63;48.48;101272.22;5033293;28;21649;-67
2022/06/03 06:50:21;;;;;;;6.28;3.35;;;;;;;20.85;48.00;101278.19;5032658;28;20033;-66
2022/06/03 06:53:08;;;;;;;4.80;3.03;;;;;;;20.88;47.40;101264.69;5033802;28;20030;-67
2022/06/03 06:55:56;;;;;;;3.85;2.53;;;;;;;21.12;47.15;101265.25;5033468;28;20059;-66
2022/06/03 06:58:42;;;;;;;5.35;3.00;;;;;;;21.23;46.64;101266.50;5033027;28;20041;-66
2022/06/03 07:01:09;;;;;;;3.08;2.25;;;;;;;21.38;46.85;101253.25;5033690;28;20116;-67
2022/06/03 07:03:56;;;;;;;3.53;2.20;;;;;;;21.53;46.59;101253.34;5032381;28;20088;-65
2022/06/03 07:06:22;;;;;;;3.65;2.47;;;;;;;21.83;46.23;101258.88;5033258;28;20071;-66
2022/06/03 07:08:54;;;;;;;3.28;2.20;;;;;;;22.00;45.11;101263.28;5032764;28;20061;-67
2022/06/03 07:11:27;;;;;;;4.47;2.22;;;;;;;22.50;44.72;101257.78;5034939;28;20025;-66
2022/06/03 07:14:14;;;;;;;5.28;2.40;;;;;;;22.99;43.01;101256.75;5032788;28;20109;-66
2022/06/03 07:20:05;;;;;;;3.17;2.00;;;;;;;23.17;41.85;101252.09;5032814;28;20408;-66
2022/06/03 07:22:43;;;;;;;3.03;1.73;;;;;;;23.33;42.00;101256.41;5032684;28;20036;-67
2022/06/03 07:25:15;;;;;;;4.35;2.03;;;;;;;23.57;40.92;101247.81;5031901;28;20451;-66
2022/06/03 07:27:43;;;;;;;2.55;1.48;;;;;;;23.73;41.80;101243.25;5030064;28;20048;-66
2022/06/03 07:30:42;;;;;;;3.97;1.80;;;;;;;23.56;40.19;101246.97;5032105;28;20029;-64
2022/06/03 07:33:31;;;;;;;5.88;2.63;;;;;;;23.52;39.99;101247.25;5029158;28;20111;-66
2022/06/03 07:36:08;;;;;;;3.60;2.00;;;;;;;23.28;39.81;101247.81;5029502;28;20029;-66
2022/06/03 07:38:56;;;;;;;3.60;2.10;;;;;;;23.54;39.73;101234.63;5027324;28;20037;-65
2022/06/03 07:41:33;;;;;;;3.88;1.67;;;;;;;23.82;39.93;101241.81;5019164;28;20044;-66
2022/06/03 07:44:07;;;;;;;1.80;1.30;;;;;;;24.12;40.09;101244.34;5023471;28;20142;-63
2022/06/03 07:46:32;;;;;;;4.68;1.73;;;;;;;24.30;39.70;101247.69;5027836;28;20034;-67
2022/06/03 07:48:58;;;;;;;3.63;1.50;;;;;;;24.39;39.64;101238.19;5032012;28;20035;-66
2022/06/03 07:51:36;;;;;;;3.53;1.65;;;;;;;24.04;39.08;101246.66;5032522;28;20037;-66
2022/06/03 07:54:04;;;;;;;4.03;1.90;;;;;;;24.39;37.68;101238.19;5032642;28;20037;-65
2022/06/03 07:56:33;;;;;;;3.00;1.83;;;;;;;24.36;38.85;101230.28;5032395;28;20030;-66
2022/06/03 07:59:02;;;;;;;6.00;1.77;;;;;;;24.60;38.76;101243.94;5032892;28;20029;-67
2022/06/03 08:01:52;;;;;;;4.25;1.98;;;;;;;25.06;37.99;101250.63;5032012;28;20029;-65
2022/06/03 08:04:33;;;;;;;4.20;1.90;;;;;;;24.89;36.20;101253.56;5012444;28;20045;-65
2022/06/03 08:12:30;;;;;;;6.45;2.05;;;;;;;24.76;37.12;101247.31;5033423;28;20060;-67
2022/06/03 08:14:57;;;;;;;2.25;1.42;;;;;;;25.08;37.47;101250.50;5031584;28;20437;-67
2022/06/03 08:17:24;;;;;;;2.58;1.50;;;;;;;25.31;36.34;101244.44;5032828;28;20034;-68
2022/06/03 08:19:49;;;;;;;2.10;1.67;;;;;;;25.14;36.63;101243.91;5025332;28;20034;-66
2022/06/03 08:22:20;;;;;;;3.40;1.50;;;;;;;25.74;35.75;101238.69;5029945;28;20494;-65
2022/06/03 08:24:52;;;;;;;2.17;1.30;;;;;;;25.83;36.19;101241.72;5031491;28;20026;-65
2022/06/03 08:27:24;;;;;;;4.90;1.55;;;;;;;25.35;35.65;101250.47;5031472;28;20044;-66
2022/06/03 08:30:01;;;;;;;2.90;1.63;;;;;;;25.27;35.33;101251.00;5032211;28;20044;-60
2022/06/03 08:32:55;;;;;;;3.25;1.73;;;;;;;24.99;35.58;101245.75;5031968;28;20037;-67
2022/06/03 08:35:25;;;;;;;3.17;1.80;;;;;;;24.25;37.61;101245.25;5028345;28;20489;-67
2022/06/03 08:38:23;;;;;;;3.33;1.73;;;;;;;24.25;36.85;101245.25;5031919;28;20034;-66
2022/06/03 08:41:13;;;;;;;4.35;1.63;;;;;;;24.27;36.90;101232.63;5016461;28;20077;-66
2022/06/03 08:44:00;;;;;;;2.10;1.10;;;;;;;24.36;35.94;101244.56;5033453;28;20048;-66
2022/06/03 08:46:42;;;;;;;3.05;1.40;;;;;;;24.12;36.13;101248.84;5036417;28;20470;-65
2022/06/03 08:49:17;;;;;;;5.67;1.57;;;;;;;23.78;35.82;101246.53;5016978;28;20413;-67
2022/06/03 08:51:49;;;;;;;3.47;1.50;;;;;;;23.64;35.86;101235.75;5017096;28;20247;-67
2022/06/03 08:54:18;;;;;;;2.00;1.00;;;;;;;24.08;36.22;101246.38;5033765;28;20037;-67
2022/06/03 08:56:47;;;;;;;4.63;1.45;;;;;;;24.25;36.16;101233.66;5036698;28;20611;-67
2022/06/03 08:59:25;;;;;;;3.35;1.25;;;;;;;23.72;34.99;101246.91;5036046;28;20065;-65
2022/06/03 09:02:00;;;;;;;2.08;1.05;;;;;;;24.08;35.03;101242.81;5036712;28;20036;-66
2022/06/03 09:04:34;;;;;;;2.85;1.40;;;;;;;24.20;35.83;101235.78;5036253;28;20081;-66
2022/06/03 09:07:05;;;;;;;3.83;1.65;;;;;;;24.44;34.76;101241.41;5026240;28;20052;-66
2022/06/03 09:09:52;;;;;;;3.05;1.58;;;;;;;24.45;34.31;101243.13;5036371;28;20475;-66
2022/06/03 09:12:23;;;;;;;3.67;1.40;;;;;;;24.81;34.75;101246.03;5035083;28;20040;-66
2022/06/03 09:14:51;;;;;;;3.60;1.33;;;;;;;24.83;34.94;101245.94;5030283;28;20063;-66
2022/06/03 09:17:35;;;;;;;1.70;1.00;;;;;;;24.79;34.03;101241.75;5033419;28;20499;-66
2022/06/03 09:20:08;;;;;;;2.72;1.00;;;;;;;24.89;34.21;101248.19;5031657;28;20037;-66
2022/06/03 09:22:34;;;;;;;2.88;1.27;;;;;;;25.07;34.05;101243.41;5035100;28;20022;-66
2022/06/03 09:25:04;;;;;;;6.75;1.60;;;;;;;25.08;33.99;101240.59;5035508;28;20038;-66
2022/06/03 09:27:30;;;;;;;2.40;0.90;;;;;;;24.85;34.25;101230.56;5035385;28;20484;-65
2022/06/03 09:30:00;;;;;;;1.45;0.75;;;;;;;24.70;33.84;101229.78;5034627;28;20361;-66
2022/06/03 09:32:27;;;;;;;2.63;0.90;;;;;;;24.97;33.96;101226.19;5035959;28;20033;-66
2022/06/03 09:35:01;;;;;;;3.80;1.10;;;;;;;25.11;33.66;101228.81;5036357;28;20037;-65
2022/06/03 09:37:34;;;;;;;1.55;0.80;;;;;;;25.33;32.64;101221.94;5035634;28;20037;-67
2022/06/03 09:40:03;;;;;;;2.17;1.08;;;;;;;25.08;33.26;101224.47;5036123;28;20091;-66
2022/06/03 09:42:31;;;;;;;1.55;0.95;;;;;;;24.68;33.05;101229.03;5035852;28;20033;-67
2022/06/03 09:45:01;;;;;;;1.55;0.85;;;;;;;24.88;32.24;101234.88;5035565;28;20029;-66
2022/06/03 09:47:28;;;;;;;1.55;0.80;;;;;;;25.29;32.94;101226.66;5034857;28;20034;-66
2022/06/03 09:49:54;;;;;;;2.80;0.85;;;;;;;25.57;32.82;101222.88;5034005;28;20044;-67
2022/06/03 09:52:25;;;;;;;2.22;1.08;;;;;;;25.62;31.38;101227.97;5016017;28;20030;-66
2022/06/03 09:54:54;;;;;;;1.92;0.82;;;;;;;25.62;32.30;101226.13;5015011;28;20040;-67
2022/06/03 09:57:25;;;;;;;3.45;0.90;;;;;;;25.56;31.04;101234.63;5015735;28;20515;-67
2022/06/03 10:00:03;;;;;;;1.73;0.98;;;;;;;25.50;30.82;101224.31;5016100;28;20508;-67
2022/06/03 10:02:31;;;;;;;1.98;0.90;;;;;;;25.58;32.14;101221.94;5015564;28;20034;-67
2022/06/03 10:04:59;;;;;;;2.55;0.95;;;;;;;25.81;32.16;101222.97;5015913;28;20030;-67
2022/06/03 10:07:26;;;;;;;2.97;1.30;;;;;;;25.54;32.34;101220.44;5028376;28;20117;-68
2022/06/03 10:12:59;;;;;;;3.70;1.00;;;;;;;25.79;32.07;101231.19;5035066;28;20091;-67
2022/06/03 10:15:40;;;;;;;3.03;1.05;;;;;;;25.56;30.86;101224.72;5035200;28;20057;-67
2022/06/03 10:18:38;;;;;;;1.15;0.70;;;;;;;25.69;30.75;101221.16;5031413;28;20029;-67
2022/06/03 10:21:06;;;;;;;3.78;0.90;;;;;;;25.95;31.42;101224.69;5032909;28;20116;-65
2022/06/03 10:23:40;;;;;;;1.33;0.80;;;;;;;26.28;31.43;101230.28;5033856;28;20446;-66
2022/06/03 10:26:05;;;;;;;1.67;0.80;;;;;;;26.32;31.02;101227.34;5032115;28;20536;-67
2022/06/03 10:28:34;;;;;;;1.05;0.80;;;;;;;26.02;30.53;101221.44;5034888;28;20132;-67
2022/06/03 10:31:04;;;;;;;2.08;0.90;;;;;;;26.18;31.05;101226.56;5034627;28;20033;-67
2022/06/03 10:33:30;;;;;;;1.17;0.75;;;;;;;26.48;30.47;101217.19;5035045;28;20487;-67
2022/06/03 10:35:58;;;;;;;2.08;0.70;;;;;;;26.97;29.44;101221.50;5034869;28;20029;-68
2022/06/03 10:38:27;;;;;;;2.13;1.00;;;;;;;27.22;29.87;101213.28;5034682;28;20376;-66
2022/06/03 10:40:53;;;;;;;3.10;0.90;;;;;;;27.34;29.59;101221.41;5034606;28;20036;-66
2022/06/03 10:43:31;;;;;;;2.13;1.00;;;;;;;26.90;29.50;101215.75;5034417;28;20034;-66
2022/06/03 10:46:08;;;;;;;1.35;0.82;;;;;;;27.16;29.27;101218.28;5034384;28;20029;-67
2022/06/03 10:48:35;;;;;;;1.55;1.00;;;;;;;27.17;29.21;101225.38;5031317;28;20091;-68
2022/06/03 11:02:31;;;;;;;3.67;1.00;;;;;;;27.22;29.48;101202.50;5029142;28;20056;-65
2022/06/03 11:05:11;;;;;;;1.77;1.17;;;;;;;27.57;28.47;101214.16;5030601;28;20034;-67
2022/06/03 11:07:37;;;;;;;1.23;0.82;;;;;;;27.83;28.91;101212.09;5031006;28;20037;-66
2022/06/03 11:10:13;;;;;;;2.22;0.82;;;;;;;28.10;27.66;101196.31;5032770;28;20044;-67
2022/06/03 11:12:39;;;;;;;1.30;0.90;;;;;;;28.37;28.19;101200.47;5032316;28;20095;-66
2022/06/03 11:15:26;;;;;;;1.60;0.98;;;;;;;27.88;27.05;101204.47;5031788;28;20029;-66
2022/06/03 11:17:51;;;;;;;2.08;1.10;;;;;;;27.01;29.24;101202.31;5032195;28;20124;-68
2022/06/03 11:20:30;;;;;;;2.83;1.08;;;;;;;27.46;28.68;101194.28;5031848;28;20113;-67
2022/06/03 11:22:56;;;;;;;1.92;1.00;;;;;;;27.84;28.76;101189.50;5031844;28;20041;-67
2022/06/03 11:25:27;;;;;;;2.47;0.85;;;;;;;28.00;27.95;101193.50;5033470;28;20041;-67
2022/06/03 11:28:04;;;;;;;1.30;0.93;;;;;;;27.71;27.44;101192.31;5032953;28;20040;-68
2022/06/03 11:31:06;;;;;;;4.28;1.10;;;;;;;27.99;26.76;101181.00;5028010;28;20057;-66
2022/06/03 11:33:39;;;;;;;2.58;1.10;;;;;;;27.84;28.42;101190.34;5031906;28;20130;-67
2022/06/03 11:36:17;;;;;;;1.92;1.08;;;;;;;27.62;27.36;101193.06;5031466;28;20033;-66
2022/06/03 11:39:03;;;;;;;1.90;1.00;;;;;;;27.66;25.93;101195.38;5029159;28;20055;-67
2022/06/03 11:41:34;;;;;;;1.33;0.90;;;;;;;27.93;27.26;101184.22;5027582;28;20029;-67
2022/06/03 11:44:09;;;;;;;1.75;1.20;;;;;;;28.00;25.67;101177.31;5032078;28;20033;-67
2022/06/03 11:47:00;;;;;;;3.03;1.00;;;;;;;28.12;26.03;101170.03;5030592;28;20037;-67
2022/06/03 11:49:25;;;;;;;2.22;0.80;;;;;;;28.59;26.74;101176.03;5023450;28;20046;-66
2022/06/03 11:51:52;;;;;;;1.95;1.00;;;;;;;28.58;26.82;101184.28;5032465;28;20055;-67
2022/06/03 11:54:22;;;;;;;2.22;1.00;;;;;;;28.59;26.56;101170.63;5030623;28;20396;-66
2022/06/03 11:56:48;;;;;;;0.90;0.55;;;;;;;28.80;26.87;101169.75;5032721;28;20038;-66
2022/06/03 11:59:28;;;;;;;1.30;0.75;;;;;;;28.51;26.71;101148.78;5032694;28;20034;-66
2022/06/03 12:02:17;;;;;;;1.10;0.80;;;;;;;28.41;26.45;101148.72;5027918;28;20052;-68
2022/06/03 12:05:00;;;;;;;2.40;1.08;;;;;;;28.13;26.98;101157.41;5030165;28;20373;-67
2022/06/03 12:07:35;;;;;;;4.15;1.10;;;;;;;28.09;27.70;101164.03;5028181;28;20077;-67
2022/06/03 12:10:40;;;;;;;1.30;0.90;;;;;;;27.53;28.18;101154.19;5031395;28;20043;-67
2022/06/03 12:13:26;;;;;;;1.80;0.80;;;;;;;27.45;27.64;101153.94;5027121;28;20029;-66
2022/06/03 12:15:56;;;;;;;1.40;0.95;;;;;;;27.95;27.84;101149.81;5025640;28;20477;-67
2022/06/03 12:18:42;;;;;;;2.13;0.90;;;;;;;27.42;26.76;101159.59;5031241;28;20029;-65
2022/06/03 12:21:13;;;;;;;1.33;0.98;;;;;;;27.38;27.38;101150.00;5032319;28;20044;-67
2022/06/03 12:23:38;;;;;;;1.27;0.90;;;;;;;27.34;28.20;101159.34;5030553;28;20029;-66
2022/06/03 12:26:18;;;;;;;1.25;0.90;;;;;;;27.50;27.01;101143.63;5031763;28;20087;-68
2022/06/03 12:28:47;;;;;;;1.40;0.90;;;;;;;27.95;27.63;101141.72;5032189;28;20052;-67
2022/06/03 12:31:19;;;;;;;1.67;0.90;;;;;;;28.24;26.43;101143.84;5030885;28;20025;-66
2022/06/03 12:34:01;;;;;;;1.92;1.10;;;;;;;28.68;26.24;101134.66;5029976;28;20037;-67
2022/06/03 12:36:27;;;;;;;1.73;0.85;;;;;;;29.12;26.54;101131.81;5033170;28;20043;-67
2022/06/03 12:39:01;;;;;;;2.27;1.00;;;;;;;29.27;25.07;101135.03;5031693;28;20108;-67
2022/06/03 12:41:45;;;;;;;1.60;1.05;;;;;;;29.17;25.36;101140.41;5029071;28;20274;-67
2022/06/03 12:44:50;;;;;;;2.17;0.90;;;;;;;28.88;25.11;101137.50;5030076;28;20041;-65
2022/06/03 12:47:18;;;;;;;1.05;0.70;;;;;;;29.23;24.93;101129.03;5032003;28;20029;-67
2022/06/03 12:49:43;;;;;;;2.22;1.25;;;;;;;29.30;25.55;101132.91;5032865;28;20033;-67
2022/06/03 12:52:31;;;;;;;1.55;0.82;;;;;;;29.49;24.79;101137.56;5033714;28;20041;-66
2022/06/03 12:55:06;;;;;;;1.92;0.80;;;;;;;29.62;25.38;101138.19;5030303;28;20370;-67
2022/06/03 12:57:41;;;;;;;3.55;1.00;;;;;;;29.54;25.73;101132.56;5032173;28;20033;-66